Online T20 Cricket Management Game | Hitwicket

Transfer History

Players bought: 33
Players sold: 37
Total purchases: Rs 90,185,100
Total sales: Rs 55,616,522
Displaying 41-60 of 68 results.
DatePlayerFromToSkill IndexTransfer fee
28-07-2016Chandrahaas AcharyaDeactivated teamChampions HR 1520 14,59910,000 
28-07-2016Amalesh AnumulaDeactivated teamChampions HR 1520 7,69110,200 
23-07-2016Henry TsotsobeChampions HR 1520NEPALI 19,3134,244,900 
14-07-2016Rick MartynChampions HR 1520Cricket'um 11 Kirukargalum 28,7301,865,500 
14-07-2016Dost MuzaffarChampions HR 1520Rahul XI 1175 7,04210,000 
12-07-2016Phil RandallChampions HR 1520Requiescat in Pace 17,860930,100 
09-07-2016Nicky VilakaziChampions HR 1520XORs 21,061993,800 
07-07-2016Vinodi PushpakumaraThe Dumbledore's ArmyChampions HR 1520 20,2731,865,800 
03-07-2016Leigh ActonGUJRAT LIONS GLChampions HR 1520 24,0144,400,000 
03-07-2016Bimal BarooahChampions HR 1520Goa Fighters 2415 11,81311,400 
03-07-2016Zahid AliChampions HR 1520TWISTED CHOICE 12,34110,000 
02-07-2016Badar HafeezChampions HR 1520Nithish Ninjas 17,4671,062,500 
30-06-2016Velugoti NutulapatiChampions HR 1520dark horses 7220 13,22810,200 
29-06-2016Heramb BoothePasi super kingChampions HR 1520 22,5833,641,400 
26-06-2016Tevin BlackAfghan Youth AcademyChampions HR 1520 43,1163,950,000 
25-06-2016Bashir KhanChampions HR 1520Everyonesvish Champions 11,06915,300 
23-06-2016Rahat HaiderSuperb HitterChampions HR 1520 20,5281,231,100 
23-06-2016Ritvik MekaMissile Marathons XIChampions HR 1520 10,65911,000 
23-06-2016Velugoti NutulapatiDeactivated teamChampions HR 1520 13,22810,000 
23-06-2016Dost MuzaffarRohit XI 353407Champions HR 1520 7,04210,900 
Go to page: